Airfield :
LOGIN :

Register | Disclaimer

   EN    FR    IT 

 










Legend :    VFR   Marginal VFR   IFR   Intensive IFR   Very Intensive IFR
Visi :
Ceiling :
>= 8 km
>= 3000ft
5 to 8 km
1000 to 3000 ft
1500m to 5 km
500 to 1000 ft
800 to 1500m
200 to 500 ft
< 800m
< 200 ft
Symbols :   Thunderstorms  Fog  Heavy snow  Heavy precipitations  Wind > 20 kt
SIGMETs :     Misc.  Thunderstorms  Icing  Turbulence  Mountain Waves  Volcanic Ashes







- Airport Elevation : 526 ft
- IATA code : LTN
- Download approach charts


EGGW - London Luton

CURRENT METAR :
  • 180750Z 02005KT 340V060 4000 1000E R08/P1500 BR NSC 03/03 Q1028

EXPIRED METARs :
  • 180720Z 05005KT 4000 1000N R08/P1500 BR FEW003 03/03 Q1028
  • 180650Z AUTO 05006KT 020V080 0400 R08/P1500 BCFG VV/// 03/03 Q1028
  • 180620Z AUTO 05006KT 020V090 0650 R08/1100 BCFG VV/// 02/02 Q1028
  • 180550Z AUTO 03004KT 0150 R08/0900 FG VV/// 02/02 Q1028

TAF TAF EGGW
Valid from the 18 at 06:00 until the 19 at 06:00 UTC


180506Z 1806/1906 07008KT 2500 BR NSC
TEMPO 1806/1809 0300 FG BKN000
BECMG 1809/1812 CAVOK
BECMG 1817/1820 8000
BECMG 1900/1903 BKN016
PROB40
TEMPO 1902/1905 BKN011
ATIS : +44 1582 395 204
No reported NOTAMs for that airfield.



MET'MAP, your aeronautical weather chart ! - Copyright ORBIFLY December 2007 - Disclaimer

ORBIFLY MET'MAP TEAM :

Programming & Development : Alexandra Zaïnal
Concept & Development : Baudouin d'Aumeries
Co-Development & Prog : Marc-Olivier Méhu
Technical & hardware support : Manuel Goepfert

Contact : metmap@orbifly.com




SOURCES & CREDITS :

   NOAA